createdAt,value
2022-08-16T00:04:06.947Z,97672.40
2022-08-16T00:09:43.965Z,97674.60
2022-08-16T00:15:52.026Z,97672.00
2022-08-16T00:22:03.109Z,97673.80
2022-08-16T00:27:47.188Z,97682.00
2022-08-16T00:34:04.627Z,97693.40
2022-08-16T00:40:33.528Z,97695.00
2022-08-16T00:47:05.005Z,97695.20
2022-08-16T00:53:21.951Z,97688.60
2022-08-16T01:00:10.186Z,97697.20
2022-08-16T01:06:40.731Z,97697.80
2022-08-16T01:12:26.509Z,97708.00
2022-08-16T01:18:40.115Z,97715.00
2022-08-16T01:25:37.541Z,97709.60
2022-08-16T01:31:23.330Z,97703.40
2022-08-16T01:37:17.596Z,97702.80
2022-08-16T01:42:50.986Z,97698.00
2022-08-16T01:48:20.655Z,97702.40
2022-08-16T01:53:54.726Z,97703.00
2022-08-16T01:59:33.971Z,97710.40
2022-08-16T02:05:12.245Z,97722.80
2022-08-16T02:10:42.430Z,97712.80
2022-08-16T02:16:23.728Z,97704.80
2022-08-16T02:22:34.687Z,97703.80
2022-08-16T02:28:08.755Z,97704.40
2022-08-16T02:33:59.333Z,97702.20
2022-08-16T02:40:05.956Z,97706.60
2022-08-16T02:46:33.852Z,97695.80
2022-08-16T02:52:00.425Z,97695.40
2022-08-16T02:57:53.937Z,97696.40
2022-08-16T03:04:40.607Z,97694.80
2022-08-16T03:09:32.562Z,97698.80
2022-08-16T03:15:08.617Z,97700.20
2022-08-16T03:20:57.118Z,97708.00
2022-08-16T03:26:19.577Z,97702.80
2022-08-16T03:31:52.472Z,97709.60
2022-08-16T03:38:01.720Z,97702.60
2022-08-16T03:43:51.011Z,97700.60
2022-08-16T03:49:15.174Z,97701.20
2022-08-16T03:55:06.014Z,97708.00
2022-08-16T04:00:41.185Z,97712.40
2022-08-16T04:07:07.269Z,97718.00
2022-08-16T04:12:59.476Z,97720.00
2022-08-16T04:18:25.918Z,97733.40
2022-08-16T04:23:52.063Z,97729.40
2022-08-16T04:29:44.142Z,97738.20
2022-08-16T04:35:49.379Z,97726.80
2022-08-16T04:41:46.230Z,97726.80
2022-08-16T04:47:21.084Z,97720.00
2022-08-16T04:52:55.687Z,97728.80
2022-08-16T04:58:45.470Z,97734.60
2022-08-16T05:04:19.648Z,97724.40
2022-08-16T05:09:48.986Z,97734.60
2022-08-16T05:15:33.141Z,97738.80
2022-08-16T05:21:13.638Z,97743.20
2022-08-16T05:26:51.476Z,97748.00
2022-08-16T05:32:32.351Z,97763.60
2022-08-16T05:38:33.205Z,97769.20
2022-08-16T05:44:27.427Z,97786.80
2022-08-16T05:49:54.775Z,97793.40
2022-08-16T05:55:24.469Z,97797.20
2022-08-16T06:00:50.676Z,97803.40
2022-08-16T06:06:31.574Z,97812.40
2022-08-16T06:11:57.214Z,97806.80
2022-08-16T06:17:24.363Z,97810.40
2022-08-16T06:23:40.508Z,97816.40
2022-08-16T06:29:20.474Z,97801.20
2022-08-16T06:35:17.580Z,97806.20
2022-08-16T06:40:49.117Z,97809.00
2022-08-16T06:47:03.103Z,97807.00
2022-08-16T06:53:00.008Z,97814.80
2022-08-16T06:58:37.000Z,97815.60
2022-08-16T07:04:12.005Z,97820.80
2022-08-16T07:10:57.922Z,97833.20
2022-08-16T07:17:23.596Z,97834.80
2022-08-16T07:23:37.365Z,97826.60
2022-08-16T07:29:28.061Z,97821.80
2022-08-16T07:35:12.421Z,97826.80
2022-08-16T07:41:00.698Z,97827.20
2022-08-16T07:47:16.854Z,97830.60
2022-08-16T07:54:20.818Z,97828.60
2022-08-16T08:00:18.548Z,97835.80
2022-08-16T08:06:36.649Z,97845.20
2022-08-16T08:12:36.628Z,97846.00
2022-08-16T08:18:56.049Z,97846.60
2022-08-16T08:24:44.630Z,97837.20
2022-08-16T08:31:01.162Z,97839.00
2022-08-16T08:37:08.889Z,97841.00
2022-08-16T08:42:49.700Z,97843.80
2022-08-16T08:49:01.898Z,97838.60
2022-08-16T08:55:39.376Z,97842.00
2022-08-16T09:01:36.817Z,97849.80
2022-08-16T09:07:33.597Z,97848.40
2022-08-16T09:13:24.707Z,97848.20
2022-08-16T09:19:32.011Z,97846.40
2022-08-16T09:25:13.077Z,97849.00
2022-08-16T09:31:20.748Z,97849.80
2022-08-16T09:37:17.956Z,97852.80
2022-08-16T09:42:59.080Z,97845.80
2022-08-16T09:48:51.213Z,97843.00
2022-08-16T09:54:45.417Z,97846.20
2022-08-16T10:00:42.667Z,97844.80
2022-08-16T10:06:34.217Z,97845.20
2022-08-16T10:12:43.799Z,97842.40
2022-08-16T10:18:56.873Z,97846.60
2022-08-16T10:25:00.162Z,97855.80
2022-08-16T10:31:05.666Z,97862.20
2022-08-16T10:36:39.822Z,97864.80
2022-08-16T10:42:01.968Z,97862.80
2022-08-16T10:48:00.943Z,97863.60
2022-08-16T10:54:00.355Z,97861.80
2022-08-16T10:59:38.991Z,97855.00
2022-08-16T11:05:21.907Z,97842.40
2022-08-16T11:11:19.687Z,97847.60
2022-08-16T11:17:02.690Z,97847.60
2022-08-16T11:23:22.268Z,97855.80
2022-08-16T11:29:14.956Z,97850.80
2022-08-16T11:35:14.013Z,97844.80
2022-08-16T11:40:52.621Z,97831.60
2022-08-16T11:46:46.834Z,97830.00
2022-08-16T11:53:03.717Z,97847.80
2022-08-16T11:58:59.265Z,97846.60
2022-08-16T12:05:15.987Z,97852.20
2022-08-16T12:10:45.343Z,97845.00
2022-08-16T12:16:11.466Z,97844.40
2022-08-16T12:22:05.351Z,97842.60
2022-08-16T12:29:12.042Z,97850.00
2022-08-16T12:34:37.767Z,97852.00
2022-08-16T12:40:37.665Z,97851.00
2022-08-16T12:46:26.076Z,97849.80
2022-08-16T12:52:32.817Z,97850.60
2022-08-16T12:58:48.278Z,97842.00
2022-08-16T13:04:35.652Z,97837.20
2022-08-16T13:10:48.918Z,97836.40
2022-08-16T13:17:06.729Z,97831.20
2022-08-16T13:23:36.009Z,97825.20
2022-08-16T13:29:24.198Z,97825.20
2022-08-16T13:35:56.350Z,97827.40
2022-08-16T13:41:26.232Z,97828.40
2022-08-16T13:47:39.344Z,97839.00
2022-08-16T13:53:24.767Z,97848.20
2022-08-16T13:59:51.493Z,97845.20
2022-08-16T14:06:23.184Z,97842.80
2022-08-16T14:13:28.203Z,97841.00
2022-08-16T14:19:24.629Z,97841.20
2022-08-16T14:25:28.966Z,97840.40
2022-08-16T14:31:28.073Z,97837.80
2022-08-16T14:38:39.128Z,97844.20
2022-08-16T14:44:07.702Z,97845.20
2022-08-16T14:49:36.066Z,97846.20
2022-08-16T14:55:31.629Z,97838.60
2022-08-16T15:01:57.821Z,97841.20
2022-08-16T15:07:47.014Z,97846.00
2022-08-16T15:14:03.962Z,97841.00
2022-08-16T15:19:30.575Z,97841.40
2022-08-16T15:25:29.406Z,97842.20
2022-08-16T15:31:14.245Z,97838.60
2022-08-16T15:36:45.283Z,97838.40
2022-08-16T15:42:33.459Z,97850.20
2022-08-16T15:48:28.533Z,97873.40
2022-08-16T15:54:29.921Z,97879.20
2022-08-16T16:00:15.163Z,97881.00
2022-08-16T16:06:02.679Z,97884.80
2022-08-16T16:11:31.116Z,97889.60
2022-08-16T16:17:25.366Z,97884.20
2022-08-16T16:22:57.994Z,97894.40
2022-08-16T16:29:06.701Z,97895.20
2022-08-16T16:34:13.104Z,97888.00
2022-08-16T16:39:45.552Z,97876.60
2022-08-16T16:45:15.339Z,97879.20
2022-08-16T16:51:11.428Z,97878.20
2022-08-16T16:56:49.772Z,97881.00
2022-08-16T17:02:38.836Z,97890.20
2022-08-16T17:08:24.638Z,97905.60
2022-08-16T17:14:06.199Z,97905.40
2022-08-16T17:19:59.235Z,97906.00
2022-08-16T17:25:55.687Z,97903.00
2022-08-16T17:31:41.110Z,97910.40
2022-08-16T17:37:12.766Z,97913.80
2022-08-16T17:42:47.490Z,97920.40
2022-08-16T17:48:35.865Z,97925.60
2022-08-16T17:54:04.449Z,97928.20
2022-08-16T17:59:31.697Z,97929.40
2022-08-16T18:05:23.675Z,97928.00
2022-08-16T18:10:53.059Z,97928.20
2022-08-16T18:16:17.088Z,97924.00
2022-08-16T18:21:59.831Z,97930.20
2022-08-16T18:27:32.861Z,97922.80
2022-08-16T18:32:58.204Z,97923.20
2022-08-16T18:38:44.468Z,97925.00
2022-08-16T18:44:25.266Z,97922.80
2022-08-16T18:50:09.924Z,97921.60
2022-08-16T18:55:36.265Z,97927.40
2022-08-16T19:01:36.909Z,97928.40
2022-08-16T19:07:11.531Z,97924.40
2022-08-16T19:12:59.028Z,97939.60
2022-08-16T19:18:57.379Z,97948.60
2022-08-16T19:24:44.132Z,97948.60
2022-08-16T19:30:13.104Z,97947.60
2022-08-16T19:35:51.746Z,97943.80
2022-08-16T19:41:28.841Z,97953.80
2022-08-16T19:47:10.267Z,97958.80
2022-08-16T19:53:19.685Z,97961.40
2022-08-16T19:59:18.548Z,97959.00
2022-08-16T20:05:05.642Z,97959.40
2022-08-16T20:10:36.555Z,97961.60
2022-08-16T20:16:01.897Z,97974.80
2022-08-16T20:21:37.428Z,97981.20
2022-08-16T20:27:33.163Z,97985.20
2022-08-16T20:33:11.026Z,97993.20
2022-08-16T20:38:52.906Z,97999.60
2022-08-16T20:44:48.654Z,97996.60
2022-08-16T20:50:13.563Z,98003.60
2022-08-16T20:55:52.923Z,98011.40
2022-08-16T21:01:50.125Z,98013.20
2022-08-16T21:07:51.033Z,98014.20
2022-08-16T21:13:18.887Z,98016.80
2022-08-16T21:19:02.370Z,98018.00
2022-08-16T21:24:25.271Z,98013.60
2022-08-16T21:30:00.083Z,98018.60
2022-08-16T21:35:50.741Z,98017.40
2022-08-16T21:41:15.343Z,98011.20
2022-08-16T21:47:23.338Z,98022.40
2022-08-16T21:53:31.607Z,98008.20
2022-08-16T21:59:11.121Z,98012.40
2022-08-16T22:04:39.113Z,98014.80
2022-08-16T22:11:07.518Z,98019.40
2022-08-16T22:15:52.138Z,98019.80
2022-08-16T22:21:22.081Z,98018.80
2022-08-16T22:27:09.032Z,98022.40
2022-08-16T22:32:53.112Z,98022.60
2022-08-16T22:38:55.492Z,98012.80
2022-08-16T22:44:30.332Z,98012.40
2022-08-16T22:49:59.034Z,98017.20
2022-08-16T22:55:35.886Z,98011.80
2022-08-16T23:01:06.050Z,98008.20
2022-08-16T23:06:31.310Z,98004.00
2022-08-16T23:12:13.400Z,98000.80
2022-08-16T23:18:02.128Z,97989.00
2022-08-16T23:23:49.186Z,97981.20
2022-08-16T23:29:26.310Z,97976.20
2022-08-16T23:34:53.117Z,97972.80
2022-08-16T23:40:31.883Z,97974.60
2022-08-16T23:46:03.810Z,97973.00
2022-08-16T23:51:49.449Z,97976.00
2022-08-16T23:57:15.666Z,97971.40
